sensor_id;sensor_type;location;lat;lon;timestamp;P1;durP1;ratioP1;P2;durP2;ratioP2
59978;SDS011;45839;44.882;20.650;2023-02-25T00:00:08;27.13;;;17.40;;
59978;SDS011;45839;44.882;20.650;2023-02-25T00:02:41;25.15;;;15.95;;
59978;SDS011;45839;44.882;20.650;2023-02-25T00:05:07;25.00;;;15.20;;
59978;SDS011;45839;44.882;20.650;2023-02-25T00:07:33;30.45;;;17.50;;
59978;SDS011;45839;44.882;20.650;2023-02-25T00:10:00;27.35;;;17.13;;
59978;SDS011;45839;44.882;20.650;2023-02-25T00:12:27;24.90;;;16.65;;
59978;SDS011;45839;44.882;20.650;2023-02-25T00:14:53;28.63;;;17.50;;
59978;SDS011;45839;44.882;20.650;2023-02-25T00:17:20;26.55;;;16.90;;
59978;SDS011;45839;44.882;20.650;2023-02-25T00:19:46;28.15;;;15.85;;
59978;SDS011;45839;44.882;20.650;2023-02-25T00:22:12;26.00;;;16.10;;
59978;SDS011;45839;44.882;20.650;2023-02-25T00:24:38;29.10;;;16.58;;
59978;SDS011;45839;44.882;20.650;2023-02-25T00:27:04;30.38;;;17.70;;
59978;SDS011;45839;44.882;20.650;2023-02-25T00:29:30;26.25;;;16.33;;
59978;SDS011;45839;44.882;20.650;2023-02-25T00:31:56;26.75;;;15.75;;
59978;SDS011;45839;44.882;20.650;2023-02-25T00:34:23;26.25;;;15.60;;
59978;SDS011;45839;44.882;20.650;2023-02-25T00:36:49;23.48;;;15.25;;
59978;SDS011;45839;44.882;20.650;2023-02-25T00:39:15;24.55;;;15.63;;
59978;SDS011;45839;44.882;20.650;2023-02-25T00:41:41;25.40;;;15.30;;
59978;SDS011;45839;44.882;20.650;2023-02-25T00:44:07;27.42;;;14.73;;
59978;SDS011;45839;44.882;20.650;2023-02-25T00:46:33;22.88;;;13.10;;
59978;SDS011;45839;44.882;20.650;2023-02-25T00:49:00;23.65;;;14.00;;
59978;SDS011;45839;44.882;20.650;2023-02-25T00:51:27;20.90;;;13.50;;
59978;SDS011;45839;44.882;20.650;2023-02-25T00:53:54;22.38;;;13.82;;
59978;SDS011;45839;44.882;20.650;2023-02-25T00:56:20;25.15;;;14.35;;
59978;SDS011;45839;44.882;20.650;2023-02-25T00:58:47;24.48;;;14.38;;
59978;SDS011;45839;44.882;20.650;2023-02-25T01:01:24;21.25;;;14.48;;
59978;SDS011;45839;44.882;20.650;2023-02-25T01:03:52;23.20;;;13.77;;
59978;SDS011;45839;44.882;20.650;2023-02-25T01:06:19;23.13;;;13.35;;
59978;SDS011;45839;44.882;20.650;2023-02-25T01:08:45;28.42;;;14.60;;
59978;SDS011;45839;44.882;20.650;2023-02-25T01:11:17;25.35;;;14.48;;
59978;SDS011;45839;44.882;20.650;2023-02-25T01:16:14;26.38;;;14.13;;
59978;SDS011;45839;44.882;20.650;2023-02-25T01:18:41;22.52;;;14.38;;
59978;SDS011;45839;44.882;20.650;2023-02-25T01:21:13;21.50;;;14.18;;
59978;SDS011;45839;44.882;20.650;2023-02-25T01:23:41;26.70;;;14.55;;
59978;SDS011;45839;44.882;20.650;2023-02-25T01:26:08;22.02;;;13.95;;
59978;SDS011;45839;44.882;20.650;2023-02-25T01:28:34;24.40;;;14.75;;
59978;SDS011;45839;44.882;20.650;2023-02-25T01:31:00;24.55;;;14.38;;
59978;SDS011;45839;44.882;20.650;2023-02-25T01:33:26;22.10;;;14.20;;
59978;SDS011;45839;44.882;20.650;2023-02-25T01:35:52;23.67;;;14.13;;
59978;SDS011;45839;44.882;20.650;2023-02-25T01:38:18;28.40;;;14.32;;
59978;SDS011;45839;44.882;20.650;2023-02-25T01:40:44;22.45;;;14.07;;
59978;SDS011;45839;44.882;20.650;2023-02-25T01:43:13;23.25;;;13.13;;
59978;SDS011;45839;44.882;20.650;2023-02-25T01:45:43;20.75;;;13.48;;
59978;SDS011;45839;44.882;20.650;2023-02-25T01:50:40;22.83;;;13.73;;
59978;SDS011;45839;44.882;20.650;2023-02-25T01:53:07;22.33;;;12.75;;
59978;SDS011;45839;44.882;20.650;2023-02-25T01:55:34;23.05;;;13.90;;
59978;SDS011;45839;44.882;20.650;2023-02-25T01:58:00;21.92;;;12.43;;
59978;SDS011;45839;44.882;20.650;2023-02-25T02:00:27;23.15;;;13.02;;
59978;SDS011;45839;44.882;20.650;2023-02-25T02:02:53;22.10;;;13.05;;
59978;SDS011;45839;44.882;20.650;2023-02-25T02:05:21;24.75;;;12.45;;
59978;SDS011;45839;44.882;20.650;2023-02-25T02:07:48;19.40;;;12.13;;
59978;SDS011;45839;44.882;20.650;2023-02-25T02:10:14;20.60;;;12.18;;
59978;SDS011;45839;44.882;20.650;2023-02-25T02:12:42;22.55;;;12.13;;
59978;SDS011;45839;44.882;20.650;2023-02-25T02:15:11;24.25;;;11.90;;
59978;SDS011;45839;44.882;20.650;2023-02-25T02:17:40;22.60;;;12.30;;
59978;SDS011;45839;44.882;20.650;2023-02-25T02:20:10;17.65;;;11.40;;
59978;SDS011;45839;44.882;20.650;2023-02-25T02:22:42;20.77;;;11.40;;
59978;SDS011;45839;44.882;20.650;2023-02-25T02:35:42;23.77;;;9.07;;
59978;SDS011;45839;44.882;20.650;2023-02-25T02:38:13;19.02;;;7.80;;
59978;SDS011;45839;44.882;20.650;2023-02-25T02:40:49;18.38;;;7.50;;
59978;SDS011;45839;44.882;20.650;2023-02-25T02:43:33;17.55;;;7.35;;
59978;SDS011;45839;44.882;20.650;2023-02-25T02:46:20;11.57;;;5.85;;
59978;SDS011;45839;44.882;20.650;2023-02-25T02:48:52;13.07;;;5.40;;
59978;SDS011;45839;44.882;20.650;2023-02-25T02:51:22;12.03;;;5.03;;
59978;SDS011;45839;44.882;20.650;2023-02-25T02:53:54;15.23;;;5.10;;
59978;SDS011;45839;44.882;20.650;2023-02-25T02:56:21;14.98;;;4.60;;
59978;SDS011;45839;44.882;20.650;2023-02-25T02:58:50;11.40;;;4.18;;
59978;SDS011;45839;44.882;20.650;2023-02-25T03:01:20;10.77;;;4.05;;
59978;SDS011;45839;44.882;20.650;2023-02-25T03:03:52;8.80;;;3.55;;
59978;SDS011;45839;44.882;20.650;2023-02-25T03:06:24;11.55;;;3.88;;
59978;SDS011;45839;44.882;20.650;2023-02-25T03:08:52;9.82;;;3.78;;
59978;SDS011;45839;44.882;20.650;2023-02-25T03:11:20;12.40;;;4.25;;
59978;SDS011;45839;44.882;20.650;2023-02-25T03:13:46;12.60;;;4.20;;
59978;SDS011;45839;44.882;20.650;2023-02-25T03:16:15;17.73;;;3.65;;
59978;SDS011;45839;44.882;20.650;2023-02-25T03:18:53;10.95;;;4.15;;
59978;SDS011;45839;44.882;20.650;2023-02-25T03:21:24;12.20;;;3.75;;
59978;SDS011;45839;44.882;20.650;2023-02-25T03:23:52;11.02;;;3.88;;
59978;SDS011;45839;44.882;20.650;2023-02-25T03:26:29;16.15;;;4.20;;
59978;SDS011;45839;44.882;20.650;2023-02-25T03:28:57;13.63;;;4.22;;
59978;SDS011;45839;44.882;20.650;2023-02-25T03:31:28;14.35;;;3.83;;
59978;SDS011;45839;44.882;20.650;2023-02-25T03:34:02;11.13;;;3.50;;
59978;SDS011;45839;44.882;20.650;2023-02-25T03:36:33;10.65;;;3.95;;
59978;SDS011;45839;44.882;20.650;2023-02-25T03:39:05;15.20;;;4.40;;
59978;SDS011;45839;44.882;20.650;2023-02-25T03:41:35;10.85;;;3.65;;
59978;SDS011;45839;44.882;20.650;2023-02-25T03:44:03;10.90;;;3.13;;
59978;SDS011;45839;44.882;20.650;2023-02-25T03:46:32;12.40;;;3.67;;
59978;SDS011;45839;44.882;20.650;2023-02-25T03:48:58;12.30;;;3.80;;
59978;SDS011;45839;44.882;20.650;2023-02-25T03:51:26;15.60;;;3.70;;
59978;SDS011;45839;44.882;20.650;2023-02-25T03:53:54;10.45;;;3.75;;
59978;SDS011;45839;44.882;20.650;2023-02-25T03:56:20;11.65;;;3.85;;
59978;SDS011;45839;44.882;20.650;2023-02-25T03:58:46;11.98;;;3.58;;
59978;SDS011;45839;44.882;20.650;2023-02-25T04:01:14;10.63;;;3.38;;
59978;SDS011;45839;44.882;20.650;2023-02-25T04:03:41;11.15;;;4.07;;
59978;SDS011;45839;44.882;20.650;2023-02-25T04:06:08;9.48;;;3.83;;
59978;SDS011;45839;44.882;20.650;2023-02-25T04:08:34;11.43;;;3.58;;
59978;SDS011;45839;44.882;20.650;2023-02-25T04:11:00;8.68;;;3.53;;
59978;SDS011;45839;44.882;20.650;2023-02-25T04:13:27;12.43;;;3.67;;
59978;SDS011;45839;44.882;20.650;2023-02-25T04:15:53;10.18;;;4.20;;
59978;SDS011;45839;44.882;20.650;2023-02-25T04:18:19;14.02;;;5.25;;
59978;SDS011;45839;44.882;20.650;2023-02-25T04:20:45;11.30;;;5.38;;
59978;SDS011;45839;44.882;20.650;2023-02-25T04:23:12;11.52;;;5.78;;
59978;SDS011;45839;44.882;20.650;2023-02-25T04:25:38;12.38;;;4.85;;
59978;SDS011;45839;44.882;20.650;2023-02-25T04:28:04;10.60;;;3.80;;
59978;SDS011;45839;44.882;20.650;2023-02-25T04:30:30;10.35;;;3.50;;
59978;SDS011;45839;44.882;20.650;2023-02-25T04:32:56;10.52;;;3.42;;
59978;SDS011;45839;44.882;20.650;2023-02-25T04:35:22;9.65;;;3.03;;
59978;SDS011;45839;44.882;20.650;2023-02-25T04:37:48;9.77;;;3.28;;
59978;SDS011;45839;44.882;20.650;2023-02-25T04:40:16;13.18;;;3.40;;
59978;SDS011;45839;44.882;20.650;2023-02-25T04:42:43;13.05;;;3.70;;
59978;SDS011;45839;44.882;20.650;2023-02-25T04:45:09;8.95;;;3.85;;
59978;SDS011;45839;44.882;20.650;2023-02-25T04:47:36;13.10;;;3.22;;
59978;SDS011;45839;44.882;20.650;2023-02-25T04:50:02;9.90;;;4.15;;
59978;SDS011;45839;44.882;20.650;2023-02-25T04:52:28;11.05;;;3.92;;
59978;SDS011;45839;44.882;20.650;2023-02-25T04:54:55;10.20;;;3.33;;
59978;SDS011;45839;44.882;20.650;2023-02-25T04:57:21;12.82;;;3.80;;
59978;SDS011;45839;44.882;20.650;2023-02-25T04:59:47;10.27;;;3.88;;
59978;SDS011;45839;44.882;20.650;2023-02-25T05:02:13;10.32;;;4.03;;
59978;SDS011;45839;44.882;20.650;2023-02-25T05:04:40;9.00;;;3.53;;
59978;SDS011;45839;44.882;20.650;2023-02-25T05:07:06;11.75;;;4.47;;
59978;SDS011;45839;44.882;20.650;2023-02-25T05:09:32;9.93;;;4.63;;
59978;SDS011;45839;44.882;20.650;2023-02-25T05:11:58;10.38;;;4.32;;
59978;SDS011;45839;44.882;20.650;2023-02-25T05:14:25;13.25;;;4.70;;
59978;SDS011;45839;44.882;20.650;2023-02-25T05:16:51;12.43;;;4.75;;
59978;SDS011;45839;44.882;20.650;2023-02-25T05:19:18;10.43;;;4.60;;
59978;SDS011;45839;44.882;20.650;2023-02-25T05:21:51;11.13;;;4.53;;
59978;SDS011;45839;44.882;20.650;2023-02-25T05:24:17;11.85;;;4.32;;
59978;SDS011;45839;44.882;20.650;2023-02-25T05:26:43;11.90;;;4.60;;
59978;SDS011;45839;44.882;20.650;2023-02-25T05:29:10;12.10;;;4.43;;
59978;SDS011;45839;44.882;20.650;2023-02-25T05:31:38;9.60;;;4.00;;
59978;SDS011;45839;44.882;20.650;2023-02-25T05:34:04;11.05;;;4.35;;
59978;SDS011;45839;44.882;20.650;2023-02-25T05:36:30;11.85;;;4.20;;
59978;SDS011;45839;44.882;20.650;2023-02-25T05:38:56;12.05;;;4.20;;
59978;SDS011;45839;44.882;20.650;2023-02-25T05:41:23;10.32;;;4.38;;
59978;SDS011;45839;44.882;20.650;2023-02-25T05:43:49;11.18;;;4.68;;
59978;SDS011;45839;44.882;20.650;2023-02-25T05:46:15;10.63;;;4.72;;
59978;SDS011;45839;44.882;20.650;2023-02-25T05:48:42;11.57;;;4.68;;
59978;SDS011;45839;44.882;20.650;2023-02-25T05:51:17;11.52;;;4.68;;
59978;SDS011;45839;44.882;20.650;2023-02-25T05:53:43;11.60;;;4.82;;
59978;SDS011;45839;44.882;20.650;2023-02-25T05:56:13;10.00;;;4.60;;
59978;SDS011;45839;44.882;20.650;2023-02-25T05:58:40;11.55;;;5.30;;
59978;SDS011;45839;44.882;20.650;2023-02-25T06:01:10;10.63;;;5.03;;
59978;SDS011;45839;44.882;20.650;2023-02-25T06:03:40;15.90;;;5.32;;
59978;SDS011;45839;44.882;20.650;2023-02-25T06:06:07;12.32;;;5.18;;
59978;SDS011;45839;44.882;20.650;2023-02-25T06:08:34;10.70;;;5.32;;
59978;SDS011;45839;44.882;20.650;2023-02-25T06:11:00;12.88;;;5.20;;
59978;SDS011;45839;44.882;20.650;2023-02-25T06:13:28;11.85;;;5.53;;
59978;SDS011;45839;44.882;20.650;2023-02-25T06:15:54;16.13;;;6.68;;
59978;SDS011;45839;44.882;20.650;2023-02-25T06:18:20;14.75;;;7.68;;
59978;SDS011;45839;44.882;20.650;2023-02-25T06:20:46;12.95;;;6.75;;
59978;SDS011;45839;44.882;20.650;2023-02-25T06:23:12;13.40;;;6.07;;
59978;SDS011;45839;44.882;20.650;2023-02-25T06:25:38;11.45;;;5.97;;
59978;SDS011;45839;44.882;20.650;2023-02-25T06:28:04;12.48;;;6.03;;
59978;SDS011;45839;44.882;20.650;2023-02-25T06:30:30;13.52;;;5.47;;
59978;SDS011;45839;44.882;20.650;2023-02-25T06:32:56;11.93;;;5.30;;
59978;SDS011;45839;44.882;20.650;2023-02-25T06:35:22;13.73;;;6.50;;
59978;SDS011;45839;44.882;20.650;2023-02-25T06:37:55;15.43;;;7.00;;
59978;SDS011;45839;44.882;20.650;2023-02-25T06:40:21;11.02;;;6.30;;
59978;SDS011;45839;44.882;20.650;2023-02-25T06:42:48;10.27;;;6.00;;
59978;SDS011;45839;44.882;20.650;2023-02-25T06:45:14;13.07;;;5.75;;
59978;SDS011;45839;44.882;20.650;2023-02-25T06:47:40;11.68;;;6.15;;
59978;SDS011;45839;44.882;20.650;2023-02-25T06:50:06;15.30;;;7.07;;
59978;SDS011;45839;44.882;20.650;2023-02-25T06:52:33;12.68;;;7.38;;
59978;SDS011;45839;44.882;20.650;2023-02-25T06:54:59;12.48;;;7.07;;
59978;SDS011;45839;44.882;20.650;2023-02-25T06:57:25;12.52;;;6.85;;
59978;SDS011;45839;44.882;20.650;2023-02-25T06:59:51;15.02;;;6.88;;
59978;SDS011;45839;44.882;20.650;2023-02-25T07:02:18;53.45;;;37.80;;
59978;SDS011;45839;44.882;20.650;2023-02-25T07:04:44;64.20;;;47.55;;
59978;SDS011;45839;44.882;20.650;2023-02-25T07:07:10;27.00;;;19.50;;
59978;SDS011;45839;44.882;20.650;2023-02-25T07:09:36;52.15;;;35.28;;
59978;SDS011;45839;44.882;20.650;2023-02-25T07:12:02;34.05;;;25.35;;
59978;SDS011;45839;44.882;20.650;2023-02-25T07:14:28;41.38;;;29.75;;
59978;SDS011;45839;44.882;20.650;2023-02-25T07:16:54;28.08;;;15.98;;
59978;SDS011;45839;44.882;20.650;2023-02-25T07:19:20;18.70;;;9.40;;
59978;SDS011;45839;44.882;20.650;2023-02-25T07:21:46;21.38;;;13.60;;
59978;SDS011;45839;44.882;20.650;2023-02-25T07:24:13;22.10;;;14.77;;
59978;SDS011;45839;44.882;20.650;2023-02-25T07:26:40;21.45;;;12.23;;
59978;SDS011;45839;44.882;20.650;2023-02-25T07:29:07;16.33;;;10.65;;
59978;SDS011;45839;44.882;20.650;2023-02-25T07:31:33;49.25;;;40.38;;
59978;SDS011;45839;44.882;20.650;2023-02-25T07:33:59;17.27;;;11.57;;
59978;SDS011;45839;44.882;20.650;2023-02-25T07:36:28;22.48;;;14.98;;
59978;SDS011;45839;44.882;20.650;2023-02-25T07:38:56;16.25;;;9.80;;
59978;SDS011;45839;44.882;20.650;2023-02-25T07:41:23;12.50;;;6.38;;
59978;SDS011;45839;44.882;20.650;2023-02-25T07:43:49;18.00;;;9.95;;
59978;SDS011;45839;44.882;20.650;2023-02-25T07:46:15;12.40;;;7.07;;
59978;SDS011;45839;44.882;20.650;2023-02-25T07:48:41;13.65;;;6.97;;
59978;SDS011;45839;44.882;20.650;2023-02-25T07:51:17;11.57;;;6.10;;
59978;SDS011;45839;44.882;20.650;2023-02-25T07:53:44;14.27;;;6.80;;
59978;SDS011;45839;44.882;20.650;2023-02-25T07:56:10;15.05;;;6.43;;
59978;SDS011;45839;44.882;20.650;2023-02-25T07:58:37;15.27;;;6.25;;
59978;SDS011;45839;44.882;20.650;2023-02-25T08:03:35;15.90;;;5.57;;
59978;SDS011;45839;44.882;20.650;2023-02-25T08:06:02;9.80;;;5.10;;
59978;SDS011;45839;44.882;20.650;2023-02-25T08:08:32;11.52;;;5.20;;
59978;SDS011;45839;44.882;20.650;2023-02-25T08:10:58;13.18;;;5.82;;
59978;SDS011;45839;44.882;20.650;2023-02-25T08:13:24;13.23;;;6.22;;
59978;SDS011;45839;44.882;20.650;2023-02-25T08:15:50;13.77;;;6.22;;
59978;SDS011;45839;44.882;20.650;2023-02-25T08:18:16;13.02;;;6.40;;
59978;SDS011;45839;44.882;20.650;2023-02-25T08:20:46;15.57;;;6.20;;
59978;SDS011;45839;44.882;20.650;2023-02-25T08:23:12;13.00;;;6.40;;
59978;SDS011;45839;44.882;20.650;2023-02-25T08:25:38;13.75;;;6.53;;
59978;SDS011;45839;44.882;20.650;2023-02-25T08:28:04;13.30;;;6.15;;
59978;SDS011;45839;44.882;20.650;2023-02-25T08:30:31;17.83;;;6.45;;
59978;SDS011;45839;44.882;20.650;2023-02-25T08:32:58;13.68;;;6.55;;
59978;SDS011;45839;44.882;20.650;2023-02-25T08:35:24;13.43;;;6.70;;
59978;SDS011;45839;44.882;20.650;2023-02-25T08:37:53;12.50;;;7.30;;
59978;SDS011;45839;44.882;20.650;2023-02-25T08:40:19;12.52;;;7.03;;
59978;SDS011;45839;44.882;20.650;2023-02-25T08:42:47;12.10;;;7.05;;
59978;SDS011;45839;44.882;20.650;2023-02-25T08:45:13;16.02;;;7.85;;
59978;SDS011;45839;44.882;20.650;2023-02-25T08:47:39;15.07;;;7.85;;
59978;SDS011;45839;44.882;20.650;2023-02-25T08:50:05;12.85;;;7.13;;
59978;SDS011;45839;44.882;20.650;2023-02-25T08:52:32;15.43;;;6.78;;
59978;SDS011;45839;44.882;20.650;2023-02-25T08:54:59;12.57;;;7.05;;
59978;SDS011;45839;44.882;20.650;2023-02-25T08:57:26;13.40;;;6.85;;
59978;SDS011;45839;44.882;20.650;2023-02-25T08:59:52;16.05;;;7.55;;
59978;SDS011;45839;44.882;20.650;2023-02-25T09:02:18;14.57;;;8.38;;
59978;SDS011;45839;44.882;20.650;2023-02-25T09:04:44;14.73;;;7.63;;
59978;SDS011;45839;44.882;20.650;2023-02-25T09:07:10;15.63;;;8.05;;
59978;SDS011;45839;44.882;20.650;2023-02-25T09:09:38;15.43;;;6.85;;
59978;SDS011;45839;44.882;20.650;2023-02-25T09:12:04;12.65;;;7.07;;
59978;SDS011;45839;44.882;20.650;2023-02-25T09:14:31;15.23;;;7.40;;
59978;SDS011;45839;44.882;20.650;2023-02-25T09:16:59;14.23;;;6.88;;
59978;SDS011;45839;44.882;20.650;2023-02-25T09:19:26;14.95;;;6.55;;
59978;SDS011;45839;44.882;20.650;2023-02-25T09:21:52;13.85;;;7.22;;
59978;SDS011;45839;44.882;20.650;2023-02-25T09:24:18;15.45;;;7.53;;
59978;SDS011;45839;44.882;20.650;2023-02-25T09:26:45;14.27;;;7.30;;
59978;SDS011;45839;44.882;20.650;2023-02-25T09:29:11;12.45;;;7.13;;
59978;SDS011;45839;44.882;20.650;2023-02-25T09:31:37;17.70;;;8.50;;
59978;SDS011;45839;44.882;20.650;2023-02-25T09:34:07;15.73;;;8.07;;
59978;SDS011;45839;44.882;20.650;2023-02-25T09:36:34;13.20;;;8.25;;
59978;SDS011;45839;44.882;20.650;2023-02-25T09:39:00;12.77;;;7.97;;
59978;SDS011;45839;44.882;20.650;2023-02-25T09:44:08;14.52;;;7.35;;
59978;SDS011;45839;44.882;20.650;2023-02-25T09:46:36;14.30;;;8.38;;
59978;SDS011;45839;44.882;20.650;2023-02-25T09:49:06;14.52;;;8.27;;
59978;SDS011;45839;44.882;20.650;2023-02-25T09:51:37;14.75;;;8.27;;
59978;SDS011;45839;44.882;20.650;2023-02-25T09:58:10;14.88;;;8.90;;
59978;SDS011;45839;44.882;20.650;2023-02-25T10:14:03;19.73;;;11.50;;
59978;SDS011;45839;44.882;20.650;2023-02-25T10:16:38;24.67;;;13.65;;
59978;SDS011;45839;44.882;20.650;2023-02-25T10:22:01;18.75;;;10.75;;
59978;SDS011;45839;44.882;20.650;2023-02-25T10:24:40;25.85;;;15.70;;
59978;SDS011;45839;44.882;20.650;2023-02-25T10:29:38;21.80;;;14.63;;
59978;SDS011;45839;44.882;20.650;2023-02-25T10:32:14;20.27;;;14.90;;
59978;SDS011;45839;44.882;20.650;2023-02-25T10:34:40;31.80;;;22.73;;
59978;SDS011;45839;44.882;20.650;2023-02-25T10:37:09;95.35;;;70.28;;
59978;SDS011;45839;44.882;20.650;2023-02-25T10:39:36;95.97;;;70.45;;
59978;SDS011;45839;44.882;20.650;2023-02-25T10:42:02;67.80;;;50.30;;
59978;SDS011;45839;44.882;20.650;2023-02-25T10:44:28;61.88;;;47.05;;
59978;SDS011;45839;44.882;20.650;2023-02-25T10:47:00;56.45;;;42.13;;
59978;SDS011;45839;44.882;20.650;2023-02-25T10:49:28;46.28;;;33.25;;
59978;SDS011;45839;44.882;20.650;2023-02-25T10:52:02;39.63;;;29.55;;
59978;SDS011;45839;44.882;20.650;2023-02-25T10:54:32;37.05;;;25.92;;
59978;SDS011;45839;44.882;20.650;2023-02-25T10:57:00;32.03;;;23.90;;
59978;SDS011;45839;44.882;20.650;2023-02-25T10:59:39;33.78;;;22.75;;
59978;SDS011;45839;44.882;20.650;2023-02-25T11:04:46;30.45;;;21.38;;
59978;SDS011;45839;44.882;20.650;2023-02-25T11:07:32;26.70;;;19.58;;
59978;SDS011;45839;44.882;20.650;2023-02-25T11:10:06;29.20;;;19.77;;
59978;SDS011;45839;44.882;20.650;2023-02-25T11:12:40;27.00;;;17.88;;
59978;SDS011;45839;44.882;20.650;2023-02-25T11:15:17;24.80;;;17.88;;
59978;SDS011;45839;44.882;20.650;2023-02-25T11:17:43;26.80;;;15.60;;
59978;SDS011;45839;44.882;20.650;2023-02-25T11:20:20;23.30;;;15.30;;
59978;SDS011;45839;44.882;20.650;2023-02-25T11:22:47;21.13;;;11.60;;
59978;SDS011;45839;44.882;20.650;2023-02-25T11:25:17;17.90;;;11.50;;
59978;SDS011;45839;44.882;20.650;2023-02-25T11:27:44;19.42;;;11.45;;
59978;SDS011;45839;44.882;20.650;2023-02-25T11:32:43;21.30;;;15.43;;
59978;SDS011;45839;44.882;20.650;2023-02-25T11:35:17;21.05;;;17.52;;
59978;SDS011;45839;44.882;20.650;2023-02-25T11:37:44;30.55;;;22.48;;
59978;SDS011;45839;44.882;20.650;2023-02-25T11:45:36;25.55;;;20.25;;
59978;SDS011;45839;44.882;20.650;2023-02-25T11:48:12;22.10;;;13.68;;
59978;SDS011;45839;44.882;20.650;2023-02-25T11:53:15;293.50;;;183.18;;
59978;SDS011;45839;44.882;20.650;2023-02-25T12:01:01;272.17;;;196.38;;
59978;SDS011;45839;44.882;20.650;2023-02-25T12:09:08;7.53;;;5.45;;
59978;SDS011;45839;44.882;20.650;2023-02-25T12:11:54;9.68;;;6.90;;
59978;SDS011;45839;44.882;20.650;2023-02-25T12:19:42;6.80;;;3.42;;
59978;SDS011;45839;44.882;20.650;2023-02-25T12:29:52;15.48;;;9.23;;
59978;SDS011;45839;44.882;20.650;2023-02-25T12:42:46;14.32;;;9.13;;
59978;SDS011;45839;44.882;20.650;2023-02-25T12:48:05;7.70;;;4.47;;
59978;SDS011;45839;44.882;20.650;2023-02-25T13:01:37;6.35;;;3.30;;
59978;SDS011;45839;44.882;20.650;2023-02-25T13:16:25;7.68;;;3.30;;
59978;SDS011;45839;44.882;20.650;2023-02-25T13:34:21;5.15;;;2.53;;
59978;SDS011;45839;44.882;20.650;2023-02-25T13:40:03;4.03;;;1.75;;
59978;SDS011;45839;44.882;20.650;2023-02-25T13:47:47;5.60;;;2.58;;
59978;SDS011;45839;44.882;20.650;2023-02-25T13:53:06;2.60;;;1.08;;
59978;SDS011;45839;44.882;20.650;2023-02-25T13:58:35;4.00;;;1.58;;
59978;SDS011;45839;44.882;20.650;2023-02-25T14:08:31;8.70;;;4.70;;
59978;SDS011;45839;44.882;20.650;2023-02-25T14:19:29;3.50;;;1.60;;
59978;SDS011;45839;44.882;20.650;2023-02-25T14:24:30;13.27;;;9.45;;
59978;SDS011;45839;44.882;20.650;2023-02-25T14:27:01;7.03;;;4.00;;
59978;SDS011;45839;44.882;20.650;2023-02-25T14:34:42;6.25;;;3.33;;
59978;SDS011;45839;44.882;20.650;2023-02-25T14:44:40;10.60;;;6.68;;
59978;SDS011;45839;44.882;20.650;2023-02-25T14:49:53;17.30;;;12.18;;
59978;SDS011;45839;44.882;20.650;2023-02-25T14:52:30;9.90;;;6.68;;
59978;SDS011;45839;44.882;20.650;2023-02-25T15:02:56;10.52;;;7.15;;
59978;SDS011;45839;44.882;20.650;2023-02-25T15:05:30;8.77;;;6.05;;
59978;SDS011;45839;44.882;20.650;2023-02-25T15:16:14;6.85;;;3.67;;
59978;SDS011;45839;44.882;20.650;2023-02-25T15:21:38;5.00;;;3.05;;
59978;SDS011;45839;44.882;20.650;2023-02-25T15:26:50;4.65;;;1.92;;
59978;SDS011;45839;44.882;20.650;2023-02-25T15:34:34;1.65;;;0.90;;
59978;SDS011;45839;44.882;20.650;2023-02-25T15:37:21;2.10;;;0.80;;
59978;SDS011;45839;44.882;20.650;2023-02-25T15:39:49;1.60;;;0.80;;
59978;SDS011;45839;44.882;20.650;2023-02-25T15:42:15;1.80;;;0.80;;
59978;SDS011;45839;44.882;20.650;2023-02-25T15:44:42;1.63;;;0.90;;
59978;SDS011;45839;44.882;20.650;2023-02-25T15:49:44;1.67;;;0.90;;
59978;SDS011;45839;44.882;20.650;2023-02-25T15:52:11;1.33;;;0.73;;
59978;SDS011;45839;44.882;20.650;2023-02-25T16:04:50;2.67;;;1.20;;
59978;SDS011;45839;44.882;20.650;2023-02-25T16:07:18;3.70;;;1.20;;
59978;SDS011;45839;44.882;20.650;2023-02-25T16:09:48;3.08;;;1.38;;
59978;SDS011;45839;44.882;20.650;2023-02-25T16:12:15;3.33;;;1.60;;
59978;SDS011;45839;44.882;20.650;2023-02-25T16:14:42;3.25;;;1.60;;
59978;SDS011;45839;44.882;20.650;2023-02-25T16:19:35;3.90;;;1.70;;
59978;SDS011;45839;44.882;20.650;2023-02-25T16:24:29;6.53;;;4.05;;
59978;SDS011;45839;44.882;20.650;2023-02-25T16:27:00;6.13;;;3.28;;
59978;SDS011;45839;44.882;20.650;2023-02-25T16:29:39;4.50;;;2.15;;
59978;SDS011;45839;44.882;20.650;2023-02-25T16:32:10;5.18;;;2.53;;
59978;SDS011;45839;44.882;20.650;2023-02-25T16:34:46;5.50;;;2.58;;
59978;SDS011;45839;44.882;20.650;2023-02-25T16:39:40;5.53;;;2.22;;
59978;SDS011;45839;44.882;20.650;2023-02-25T16:42:10;6.85;;;3.08;;
59978;SDS011;45839;44.882;20.650;2023-02-25T16:44:37;8.80;;;2.67;;
59978;SDS011;45839;44.882;20.650;2023-02-25T16:47:04;4.32;;;2.08;;
59978;SDS011;45839;44.882;20.650;2023-02-25T16:51:57;3.08;;;1.30;;
59978;SDS011;45839;44.882;20.650;2023-02-25T16:54:25;3.33;;;1.48;;
59978;SDS011;45839;44.882;20.650;2023-02-25T16:56:53;6.28;;;2.45;;
59978;SDS011;45839;44.882;20.650;2023-02-25T16:59:21;3.65;;;1.73;;
59978;SDS011;45839;44.882;20.650;2023-02-25T17:01:58;2.95;;;1.25;;
59978;SDS011;45839;44.882;20.650;2023-02-25T17:04:32;3.65;;;1.20;;
59978;SDS011;45839;44.882;20.650;2023-02-25T17:07:06;2.72;;;1.10;;
59978;SDS011;45839;44.882;20.650;2023-02-25T17:09:33;2.80;;;1.17;;
59978;SDS011;45839;44.882;20.650;2023-02-25T17:11:59;2.45;;;1.02;;
59978;SDS011;45839;44.882;20.650;2023-02-25T17:14:26;4.85;;;2.10;;
59978;SDS011;45839;44.882;20.650;2023-02-25T17:16:52;7.85;;;4.20;;
59978;SDS011;45839;44.882;20.650;2023-02-25T17:19:20;4.95;;;2.35;;
59978;SDS011;45839;44.882;20.650;2023-02-25T17:21:50;6.45;;;2.63;;
59978;SDS011;45839;44.882;20.650;2023-02-25T17:24:18;6.85;;;3.60;;
59978;SDS011;45839;44.882;20.650;2023-02-25T17:26:47;6.68;;;2.92;;
59978;SDS011;45839;44.882;20.650;2023-02-25T17:29:15;7.30;;;3.78;;
59978;SDS011;45839;44.882;20.650;2023-02-25T17:31:46;6.95;;;3.40;;
59978;SDS011;45839;44.882;20.650;2023-02-25T17:34:13;8.52;;;4.53;;
59978;SDS011;45839;44.882;20.650;2023-02-25T17:36:39;10.68;;;6.53;;
59978;SDS011;45839;44.882;20.650;2023-02-25T17:39:06;11.05;;;6.82;;
59978;SDS011;45839;44.882;20.650;2023-02-25T17:41:33;10.20;;;6.15;;
59978;SDS011;45839;44.882;20.650;2023-02-25T17:43:59;10.02;;;5.82;;
59978;SDS011;45839;44.882;20.650;2023-02-25T17:46:32;9.68;;;5.10;;
59978;SDS011;45839;44.882;20.650;2023-02-25T17:49:02;9.90;;;5.80;;
59978;SDS011;45839;44.882;20.650;2023-02-25T17:51:32;7.78;;;4.05;;
59978;SDS011;45839;44.882;20.650;2023-02-25T17:54:03;8.00;;;3.63;;
59978;SDS011;45839;44.882;20.650;2023-02-25T17:56:31;9.95;;;4.88;;
59978;SDS011;45839;44.882;20.650;2023-02-25T17:58:59;9.40;;;3.95;;
59978;SDS011;45839;44.882;20.650;2023-02-25T18:01:27;8.65;;;3.88;;
59978;SDS011;45839;44.882;20.650;2023-02-25T18:03:55;6.47;;;2.85;;
59978;SDS011;45839;44.882;20.650;2023-02-25T18:06:27;6.72;;;3.33;;
59978;SDS011;45839;44.882;20.650;2023-02-25T18:08:55;5.50;;;2.72;;
59978;SDS011;45839;44.882;20.650;2023-02-25T18:13:50;8.63;;;2.17;;
59978;SDS011;45839;44.882;20.650;2023-02-25T18:18:42;17.02;;;3.03;;
59978;SDS011;45839;44.882;20.650;2023-02-25T18:21:08;6.05;;;2.30;;